Accueil
METAR-TAF:

METAR-TAF

Aéroports :

Cassel, Allemagne

latitude: 51-24N, longitude: 009-23E, altitude: 277 m

Observation

Le bulletin a été fait il y a 28 minutes, à 06:20 UTC
Vent 2 kt de direction variable
Température 4°C
Humidité 87%
Pression 1034 hPa
Visibilité 10 km ou plus
Ciel couvert à une hauteur de 1100 ft

METAR: EDVK 240620Z VRB02KT 9999 OVC011 04/02 Q1034

Heure: 07:48 (06:48 UTC)

Prévision

Le bulletin a été fait il y a 12 heures et 13 minutes, à 18:35 UTC
Prévision valable du 23 à 18 UTC au 24 à 03 UTC
Vent 4 kt de ouest/nord-ouest
Visibilité 10 km ou plus
Nuages épars à une hauteur de 600 ft
Nuages fragmentés à une hauteur de 1000 ft
Temporairement
du 23 à 18 UTC au 24 à 03 UTC
Visibilité: 2500 m
Nuages fragmentés à une hauteur de 600 ft
brume

TAF: EDVK 231835Z 2318/2403 30004KT 9999 SCT006 BKN010 TEMPO 2318/2403 2500 BR BKN006

Observations et prévisions météorologiques de plus de 4000 aéroports (messages METAR et TAF).

Les stations disponibles sont représentées par des disques jaunes et rouges sur la carte.

Passer la souris dessus pour voir le nom de la station.

Cliquer dessus pour voir les observations et prévisions météorologiques.

Pour changer de carte: cliquez sur les boutons verts avec une croix noire pour zoomer, sur le bouton vert avec un tiret pour effectuer un zoom arrière, ou sur les flèches vertes pour les cartes adjacentes.


METAR-TAF: